Time;durP1;ratioP1;P1;durP2;ratioP2;P2;SDS_P1;SDS_P2;PMS_P1;PMS_P2;Temp;Humidity;BMP_temperature;BMP_pressure;BME280_temperature;BME280_humidity;BME280_pressure;Samples;Min_cycle;Max_cycle;Signal;HPM_P1;HPM_P2
2021/08/17 00:01:57;;;;;;;6.30;3.50;;;15.80;99.90;;;;;;5050934;28;20439;-50
2021/08/17 00:04:24;;;;;;;7.43;3.00;;;16.00;99.90;;;;;;5051004;28;20788;-50
2021/08/17 00:06:50;;;;;;;9.10;2.80;;;15.60;99.90;;;;;;5050603;28;20454;-49
2021/08/17 00:09:18;;;;;;;7.20;3.33;;;15.70;99.90;;;;;;5051019;28;20947;-50
2021/08/17 00:11:46;;;;;;;10.93;3.30;;;15.70;99.90;;;;;;5050961;28;20947;-50
2021/08/17 00:14:13;;;;;;;7.90;3.10;;;15.70;99.90;;;;;;5050953;28;20942;-49
2021/08/17 00:16:39;;;;;;;6.33;2.97;;;15.70;99.90;;;;;;5050331;28;20431;-50
2021/08/17 00:19:06;;;;;;;4.57;2.87;;;15.90;99.90;;;;;;5050785;28;20477;-50
2021/08/17 00:21:32;;;;;;;5.30;3.03;;;15.80;99.90;;;;;;5051005;28;20445;-50
2021/08/17 00:23:59;;;;;;;7.37;3.13;;;15.80;99.90;;;;;;5050785;28;20441;-49
2021/08/17 00:26:26;;;;;;;6.77;3.27;;;16.00;99.90;;;;;;5050420;28;20965;-49
2021/08/17 00:28:54;;;;;;;5.60;3.10;;;15.80;99.90;;;;;;5054447;28;20434;-49
2021/08/17 00:31:20;;;;;;;11.07;3.90;;;15.90;99.90;;;;;;5054959;28;20437;-49
2021/08/17 00:33:47;;;;;;;7.80;3.30;;;16.20;99.90;;;;;;5054363;28;20441;-50
2021/08/17 00:36:14;;;;;;;12.83;3.20;;;15.90;99.90;;;;;;5054212;28;20529;-49
2021/08/17 00:38:41;;;;;;;9.37;3.13;;;15.70;99.90;;;;;;5054277;28;20963;-50
2021/08/17 00:41:09;;;;;;;9.70;3.20;;;15.80;99.90;;;;;;5054476;28;20437;-49
2021/08/17 00:43:35;;;;;;;7.83;3.10;;;15.80;99.90;;;;;;5054333;28;20438;-50
2021/08/17 00:46:05;;;;;;;6.90;2.90;;;15.90;99.90;;;;;;5054020;28;20435;-49
2021/08/17 00:48:34;;;;;;;6.30;3.10;;;15.80;99.90;;;;;;5054070;28;20459;-50
2021/08/17 00:51:01;;;;;;;8.20;3.27;;;15.90;99.90;;;;;;5054195;28;20492;-50
2021/08/17 00:53:27;;;;;;;8.20;4.30;;;16.00;99.90;;;;;;5053988;28;20438;-50
2021/08/17 00:55:55;;;;;;;9.40;3.43;;;16.10;99.90;;;;;;5054059;28;20426;-50
2021/08/17 00:58:21;;;;;;;7.67;3.00;;;15.90;99.90;;;;;;5053945;28;20489;-50
2021/08/17 01:00:48;;;;;;;12.10;3.67;;;16.00;99.90;;;;;;5053917;28;20446;-50
2021/08/17 01:03:18;;;;;;;7.37;3.40;;;16.00;99.90;;;;;;5053809;28;20501;-49
2021/08/17 01:05:45;;;;;;;9.00;3.40;;;16.00;99.90;;;;;;5053986;28;20946;-49
2021/08/17 01:08:11;;;;;;;6.47;3.47;;;16.00;99.90;;;;;;5053362;28;20446;-49
2021/08/17 01:10:39;;;;;;;17.00;3.00;;;15.80;99.80;;;;;;5053800;28;20431;-50
2021/08/17 01:13:05;;;;;;;7.00;3.10;;;16.00;99.80;;;;;;5053611;28;20977;-49
2021/08/17 01:15:32;;;;;;;5.20;3.70;;;16.00;99.70;;;;;;5053833;28;20445;-49
2021/08/17 01:17:59;;;;;;;6.33;3.10;;;16.00;99.70;;;;;;5053456;28;20531;-50
2021/08/17 01:20:27;;;;;;;6.80;3.70;;;16.00;99.70;;;;;;5053515;28;20479;-50
2021/08/17 01:22:54;;;;;;;9.80;3.10;;;16.00;99.70;;;;;;5053451;28;20430;-50
2021/08/17 01:25:21;;;;;;;5.30;3.07;;;16.00;99.70;;;;;;5053545;28;20441;-50
2021/08/17 01:27:49;;;;;;;9.30;3.50;;;16.10;99.70;;;;;;5053028;28;20459;-50
2021/08/17 01:30:16;;;;;;;6.00;3.43;;;16.10;99.70;;;;;;5053420;28;20434;-50
2021/08/17 01:32:45;;;;;;;9.20;3.50;;;16.00;99.70;;;;;;5053338;28;20454;-50
2021/08/17 01:35:13;;;;;;;5.93;2.70;;;16.00;99.70;;;;;;5053246;28;20986;-50
2021/08/17 01:37:39;;;;;;;4.87;2.97;;;16.00;99.60;;;;;;5053068;28;20864;-50
2021/08/17 01:40:09;;;;;;;6.33;3.30;;;16.00;99.60;;;;;;5052490;28;20477;-50
2021/08/17 01:42:36;;;;;;;7.07;3.53;;;16.00;99.60;;;;;;5053321;28;20512;-49
2021/08/17 01:45:05;;;;;;;6.10;3.33;;;16.00;99.60;;;;;;5053223;28;20561;-50
2021/08/17 01:47:32;;;;;;;11.00;3.10;;;15.90;99.70;;;;;;5052724;28;20454;-49
2021/08/17 01:50:01;;;;;;;7.13;3.10;;;15.90;99.80;;;;;;5053081;28;20534;-50
2021/08/17 01:52:28;;;;;;;6.53;3.13;;;16.00;99.80;;;;;;5052968;28;20520;-50
2021/08/17 01:54:55;;;;;;;7.97;2.93;;;16.00;99.80;;;;;;5053027;28;20439;-50
2021/08/17 01:57:22;;;;;;;7.73;3.40;;;16.00;99.80;;;;;;5052396;28;20541;-50
2021/08/17 01:59:49;;;;;;;8.97;3.87;;;16.00;99.70;;;;;;5052831;28;20499;-50
2021/08/17 02:02:17;;;;;;;4.57;2.70;;;16.10;99.70;;;;;;5053195;28;20438;-50
2021/08/17 02:04:44;;;;;;;3.83;2.40;;;16.10;99.60;;;;;;5052918;28;20436;-50
2021/08/17 02:07:10;;;;;;;6.20;3.20;;;16.10;99.50;;;;;;5052311;28;20458;-50
2021/08/17 02:09:37;;;;;;;12.97;3.70;;;16.10;99.40;;;;;;5052660;28;20442;-50
2021/08/17 02:12:04;;;;;;;12.00;2.90;;;16.10;99.30;;;;;;5052952;28;20431;-50
2021/08/17 02:14:31;;;;;;;11.67;3.70;;;16.10;99.30;;;;;;5052623;28;20434;-50
2021/08/17 02:16:57;;;;;;;9.30;3.90;;;16.10;99.30;;;;;;5052028;28;20848;-50
2021/08/17 02:19:25;;;;;;;7.43;2.90;;;16.10;99.30;;;;;;5052455;28;20479;-50
2021/08/17 02:21:52;;;;;;;7.20;2.63;;;16.10;99.30;;;;;;5052484;28;20431;-50
2021/08/17 02:24:18;;;;;;;9.10;4.47;;;16.10;99.20;;;;;;5052527;28;20438;-50
2021/08/17 02:26:45;;;;;;;9.13;2.80;;;16.10;99.20;;;;;;5051979;28;20986;-50
2021/08/17 02:29:12;;;;;;;6.03;2.20;;;16.10;99.20;;;;;;5052372;28;20446;-51
2021/08/17 02:31:38;;;;;;;7.43;3.00;;;16.10;99.20;;;;;;5052380;28;20933;-49
2021/08/17 02:34:05;;;;;;;7.13;2.90;;;16.10;99.20;;;;;;5052532;28;20449;-49
2021/08/17 02:36:33;;;;;;;7.30;3.07;;;16.10;99.10;;;;;;5052344;28;20435;-50
2021/08/17 02:39:00;;;;;;;7.40;2.80;;;16.10;99.10;;;;;;5052353;28;20435;-49
2021/08/17 02:41:27;;;;;;;7.53;3.17;;;16.10;99.10;;;;;;5052235;28;20780;-50
2021/08/17 02:43:53;;;;;;;8.37;2.90;;;16.40;99.30;;;;;;5052129;28;20453;-50
2021/08/17 02:46:20;;;;;;;8.17;3.60;;;16.10;99.20;;;;;;5051835;28;20441;-50
2021/08/17 02:48:47;;;;;;;8.37;3.70;;;16.20;99.20;;;;;;5051957;28;20814;-50
2021/08/17 02:51:14;;;;;;;6.23;2.17;;;16.20;99.20;;;;;;5051067;28;20912;-50
2021/08/17 02:53:43;;;;;;;8.10;3.50;;;16.20;99.10;;;;;;5051998;28;20481;-50
2021/08/17 02:56:09;;;;;;;5.93;2.80;;;16.20;99.10;;;;;;5051549;28;20430;-50
2021/08/17 02:58:36;;;;;;;9.20;2.40;;;16.20;99.20;;;;;;5051700;28;20477;-50
2021/08/17 03:01:03;;;;;;;7.27;2.73;;;16.20;99.10;;;;;;5051745;28;20474;-50
2021/08/17 03:03:29;;;;;;;6.47;2.70;;;16.20;99.10;;;;;;5051836;28;20431;-51
2021/08/17 03:05:56;;;;;;;5.50;3.13;;;16.30;99.10;;;;;;5051721;28;20443;-50
2021/08/17 03:08:23;;;;;;;4.33;2.17;;;16.20;99.00;;;;;;5051358;28;20454;-50
2021/08/17 03:10:51;;;;;;;6.87;2.77;;;16.30;99.10;;;;;;5051658;28;20800;-50
2021/08/17 03:13:17;;;;;;;6.60;2.90;;;16.30;99.10;;;;;;5051657;28;20435;-49
2021/08/17 03:15:44;;;;;;;6.10;3.03;;;16.30;99.10;;;;;;5051628;28;20809;-49
2021/08/17 03:18:11;;;;;;;5.00;2.67;;;16.30;99.10;;;;;;5051255;28;20545;-49
2021/08/17 03:20:38;;;;;;;11.07;3.00;;;16.30;99.10;;;;;;5051482;28;20882;-49
2021/08/17 03:23:07;;;;;;;6.17;2.83;;;16.30;99.10;;;;;;5051552;28;20426;-49
2021/08/17 03:25:33;;;;;;;6.60;2.77;;;16.30;99.20;;;;;;5051591;28;20449;-49
2021/08/17 03:28:01;;;;;;;7.23;3.07;;;16.30;99.20;;;;;;5051048;28;20806;-49
2021/08/17 03:30:28;;;;;;;6.93;3.97;;;16.30;99.20;;;;;;5051359;28;20935;-49
2021/08/17 03:32:55;;;;;;;4.23;2.67;;;16.30;99.20;;;;;;5051444;28;20950;-49
2021/08/17 03:35:23;;;;;;;9.23;3.03;;;16.30;99.20;;;;;;5051642;28;20450;-50
2021/08/17 03:37:49;;;;;;;7.13;3.13;;;16.30;99.30;;;;;;5050992;28;20473;-49
2021/08/17 03:40:19;;;;;;;8.43;3.60;;;16.30;99.30;;;;;;5051566;28;20834;-49
2021/08/17 03:42:46;;;;;;;9.37;3.50;;;16.90;99.80;;;;;;5051363;28;20955;-49
2021/08/17 03:45:17;;;;;;;7.40;2.70;;;16.30;99.50;;;;;;5051438;28;20931;-48
2021/08/17 03:47:44;;;;;;;9.70;3.50;;;16.30;99.60;;;;;;5050545;28;20453;-49
2021/08/17 03:50:12;;;;;;;5.53;2.80;;;16.40;99.70;;;;;;5051253;28;20435;-50
2021/08/17 03:52:40;;;;;;;4.90;3.20;;;16.30;99.70;;;;;;5051445;28;20471;-49
2021/08/17 03:55:08;;;;;;;7.90;3.50;;;16.30;99.60;;;;;;5051266;28;20434;-49
2021/08/17 03:57:35;;;;;;;7.13;3.43;;;16.30;99.70;;;;;;5050361;28;20827;-49
2021/08/17 04:00:02;;;;;;;5.80;3.57;;;16.40;99.70;;;;;;5051021;28;20839;-49
2021/08/17 04:02:41;;;;;;;12.37;3.40;;;16.40;99.70;;;;;;5053058;28;20416;-50
2021/08/17 04:05:08;;;;;;;7.17;3.60;;;16.40;99.70;;;;;;5054917;28;20538;-50
2021/08/17 04:07:35;;;;;;;7.10;3.43;;;16.40;99.60;;;;;;5054684;28;20450;-50
2021/08/17 04:10:02;;;;;;;7.13;2.90;;;16.40;99.70;;;;;;5054811;28;20427;-51
2021/08/17 04:12:28;;;;;;;7.87;3.10;;;16.40;99.60;;;;;;5054771;28;20946;-50
2021/08/17 04:14:55;;;;;;;9.37;3.60;;;16.40;99.60;;;;;;5054649;28;20609;-50
2021/08/17 04:17:21;;;;;;;5.20;2.67;;;16.40;99.60;;;;;;5054329;28;20965;-50
2021/08/17 04:19:49;;;;;;;5.83;2.73;;;16.40;99.60;;;;;;5054795;28;20561;-50
2021/08/17 04:22:16;;;;;;;4.90;3.03;;;16.50;99.60;;;;;;5054648;28;20521;-50
2021/08/17 04:24:43;;;;;;;9.33;2.93;;;16.50;99.70;;;;;;5054669;28;20462;-50
2021/08/17 04:27:10;;;;;;;5.03;2.60;;;16.50;99.70;;;;;;5053834;28;20923;-50
2021/08/17 04:29:38;;;;;;;5.30;2.83;;;16.50;99.70;;;;;;5054331;28;20447;-50
2021/08/17 04:32:05;;;;;;;6.07;3.60;;;16.60;99.80;;;;;;5054365;28;20450;-50
2021/08/17 04:34:32;;;;;;;10.53;3.10;;;16.60;99.80;;;;;;5054404;28;20439;-50
2021/08/17 04:37:00;;;;;;;6.50;3.87;;;16.60;99.90;;;;;;5053750;28;20459;-50
2021/08/17 04:39:27;;;;;;;7.97;2.70;;;16.60;99.80;;;;;;5054190;28;20438;-50
2021/08/17 04:41:53;;;;;;;4.37;2.53;;;16.60;99.80;;;;;;5054128;28;20442;-51
2021/08/17 04:44:20;;;;;;;6.47;3.57;;;16.60;99.80;;;;;;5054444;28;20431;-51
2021/08/17 04:46:47;;;;;;;6.50;3.33;;;16.70;99.90;;;;;;5053595;28;20454;-51
2021/08/17 04:49:13;;;;;;;8.40;3.47;;;16.70;99.90;;;;;;5054117;28;20457;-50
2021/08/17 04:51:40;;;;;;;6.00;3.13;;;16.70;99.90;;;;;;5054121;28;20788;-50
2021/08/17 04:54:08;;;;;;;8.33;2.70;;;16.70;99.90;;;;;;5054186;28;20439;-51
2021/08/17 04:56:35;;;;;;;5.77;3.30;;;16.70;99.90;;;;;;5053631;28;20822;-50
2021/08/17 04:59:01;;;;;;;6.40;3.10;;;16.60;99.90;;;;;;5052316;28;20451;-50
2021/08/17 05:01:28;;;;;;;7.37;3.30;;;16.70;99.90;;;;;;5053701;28;20504;-50
2021/08/17 05:03:55;;;;;;;9.70;3.53;;;16.80;99.90;;;;;;5053445;28;20516;-50
2021/08/17 05:06:21;;;;;;;7.13;2.83;;;16.80;99.90;;;;;;5053239;28;20431;-50
2021/08/17 05:08:48;;;;;;;10.63;3.20;;;16.80;99.90;;;;;;5053531;28;20450;-50
2021/08/17 05:11:16;;;;;;;8.97;3.60;;;16.80;99.90;;;;;;5053398;28;20517;-50
2021/08/17 05:13:43;;;;;;;10.27;3.47;;;16.90;99.90;;;;;;5052511;28;20430;-50
2021/08/17 05:16:11;;;;;;;6.10;3.10;;;16.80;99.90;;;;;;5052772;28;20430;-50
2021/08/17 05:18:37;;;;;;;11.87;3.53;;;16.80;99.90;;;;;;5052983;28;20462;-50
2021/08/17 05:21:04;;;;;;;13.13;3.00;;;16.90;99.90;;;;;;5053171;28;20532;-50
2021/08/17 05:23:31;;;;;;;8.20;3.53;;;16.90;99.90;;;;;;5052888;28;20434;-50
2021/08/17 05:25:58;;;;;;;9.20;3.63;;;16.90;99.90;;;;;;5052830;28;20471;-50
2021/08/17 05:28:26;;;;;;;9.27;3.70;;;16.90;99.90;;;;;;5052303;28;20451;-50
2021/08/17 05:30:52;;;;;;;6.13;2.83;;;16.90;99.90;;;;;;5053047;28;20530;-50
2021/08/17 05:33:19;;;;;;;6.80;3.20;;;16.90;99.90;;;;;;5052450;28;20449;-50
2021/08/17 05:35:46;;;;;;;11.67;4.17;;;17.00;99.90;;;;;;5052861;28;20437;-50
2021/08/17 05:38:12;;;;;;;5.70;2.83;;;17.00;99.90;;;;;;5051738;28;20450;-51
2021/08/17 05:40:39;;;;;;;12.17;4.47;;;17.00;99.90;;;;;;5052168;28;20562;-51
2021/08/17 05:43:06;;;;;;;8.60;3.47;;;17.10;99.90;;;;;;5051919;28;20434;-51
2021/08/17 05:45:35;;;;;;;8.20;3.67;;;17.10;99.90;;;;;;5052384;28;20438;-51
2021/08/17 05:48:01;;;;;;;8.93;5.83;;;17.10;99.90;;;;;;5051428;28;20466;-51
2021/08/17 05:50:28;;;;;;;13.70;5.40;;;17.10;99.90;;;;;;5050486;28;20579;-51
2021/08/17 05:52:55;;;;;;;9.00;4.07;;;17.20;99.90;;;;;;5052568;28;20442;-51
2021/08/17 05:55:22;;;;;;;7.93;2.83;;;17.20;99.90;;;;;;5052226;28;20907;-51
2021/08/17 05:57:56;;;;;;;6.07;3.67;;;16.90;99.90;;;;;;5051005;28;20471;-51
2021/08/17 06:00:23;;;;;;;6.97;2.90;;;16.70;99.90;;;;;;5051773;28;20478;-51
2021/08/17 06:02:51;;;;;;;9.80;3.63;;;17.10;99.90;;;;;;5052550;28;20439;-51
2021/08/17 06:05:18;;;;;;;8.37;3.67;;;17.10;99.90;;;;;;5052404;28;20457;-51
2021/08/17 06:07:48;;;;;;;7.70;3.50;;;17.20;99.90;;;;;;5052172;28;20470;-50
2021/08/17 06:10:15;;;;;;;11.93;3.47;;;17.20;99.90;;;;;;5051961;28;20447;-51
2021/08/17 06:12:42;;;;;;;10.13;3.57;;;17.20;99.90;;;;;;5051703;28;20431;-51
2021/08/17 06:15:10;;;;;;;11.80;4.80;;;17.00;99.90;;;;;;5052425;28;20423;-50
2021/08/17 06:17:37;;;;;;;6.70;3.73;;;17.30;99.90;;;;;;5051707;28;20450;-50
2021/08/17 06:20:07;;;;;;;10.17;3.80;;;17.20;99.90;;;;;;5051835;28;20430;-50
2021/08/17 06:22:34;;;;;;;11.53;3.67;;;17.30;99.90;;;;;;5051741;28;20923;-51
2021/08/17 06:25:01;;;;;;;12.47;4.70;;;17.30;99.90;;;;;;5051282;28;20438;-50
2021/08/17 06:27:28;;;;;;;12.13;3.87;;;17.40;99.90;;;;;;5050971;28;20461;-51
2021/08/17 06:29:54;;;;;;;7.30;4.00;;;17.40;99.90;;;;;;5051336;28;20905;-50
2021/08/17 06:32:21;;;;;;;9.23;3.87;;;17.50;99.90;;;;;;5051522;28;20434;-50
2021/08/17 06:34:48;;;;;;;7.27;2.73;;;17.60;99.90;;;;;;5051733;28;20437;-50
2021/08/17 06:37:16;;;;;;;12.90;3.93;;;17.70;99.90;;;;;;5050931;28;20819;-51
2021/08/17 06:39:43;;;;;;;10.37;3.77;;;17.80;99.90;;;;;;5051714;28;20773;-51
2021/08/17 06:42:10;;;;;;;9.07;3.93;;;17.80;99.90;;;;;;5051348;28;20479;-51
2021/08/17 06:44:37;;;;;;;7.90;3.53;;;17.90;99.90;;;;;;5051403;28;20439;-50
2021/08/17 06:47:04;;;;;;;10.00;3.53;;;17.90;99.90;;;;;;5051161;28;20458;-49
2021/08/17 06:49:31;;;;;;;15.67;4.00;;;17.90;99.90;;;;;;5051587;28;20455;-51
2021/08/17 06:51:57;;;;;;;12.60;4.17;;;17.90;99.90;;;;;;5051700;28;20431;-50
2021/08/17 06:54:25;;;;;;;8.17;3.50;;;17.90;99.90;;;;;;5051908;28;20438;-50
2021/08/17 06:59:18;;;;;;;10.73;3.30;;;17.90;99.90;;;;;;4988100;28;20486;-50
2021/08/17 07:01:45;;;;;;;10.97;3.80;;;17.90;99.90;;;;;;4991236;28;20847;-49
2021/08/17 07:04:11;;;;;;;9.33;3.53;;;17.80;99.90;;;;;;4990728;28;20880;-49
2021/08/17 07:06:38;;;;;;;9.40;3.57;;;17.80;99.90;;;;;;4991335;28;20437;-49
2021/08/17 07:09:05;;;;;;;9.70;4.37;;;17.70;99.90;;;;;;4991057;28;20454;-49
2021/08/17 07:11:33;;;;;;;8.77;3.90;;;17.70;99.90;;;;;;4990630;28;20913;-49
2021/08/17 07:13:59;;;;;;;10.13;3.80;;;17.70;99.90;;;;;;4990804;28;20770;-50
2021/08/17 07:16:26;;;;;;;9.57;3.80;;;17.80;99.90;;;;;;4990485;28;20439;-50
2021/08/17 07:18:53;;;;;;;17.27;4.50;;;17.80;99.90;;;;;;4990770;28;20457;-50
2021/08/17 07:21:19;;;;;;;9.10;3.40;;;17.90;99.90;;;;;;4990738;28;20496;-51
2021/08/17 07:23:46;;;;;;;10.37;3.50;;;18.00;99.90;;;;;;4990714;28;20506;-48
2021/08/17 07:26:13;;;;;;;10.97;3.80;;;18.10;99.80;;;;;;4988929;28;20450;-49
2021/08/17 07:28:41;;;;;;;8.90;3.30;;;18.20;99.60;;;;;;4990595;28;20452;-49
2021/08/17 07:31:07;;;;;;;12.57;4.17;;;18.30;99.50;;;;;;4991274;28;20438;-49
2021/08/17 07:33:34;;;;;;;9.00;3.33;;;18.30;99.30;;;;;;4990789;28;21046;-49
2021/08/17 07:36:00;;;;;;;6.73;3.17;;;18.40;99.00;;;;;;4990542;28;20458;-50
2021/08/17 07:38:27;;;;;;;9.37;4.60;;;18.50;98.90;;;;;;4992173;28;20493;-50
2021/08/17 07:40:54;;;;;;;9.47;3.03;;;18.60;98.70;;;;;;4993820;28;20475;-49
2021/08/17 07:43:20;;;;;;;6.33;2.90;;;18.20;98.50;;;;;;4994773;28;20928;-48
2021/08/17 07:45:49;;;;;;;10.77;3.30;;;18.60;98.40;;;;;;4995107;28;20435;-49
2021/08/17 07:48:15;;;;;;;6.53;3.10;;;18.50;98.30;;;;;;4994279;28;20459;-49
2021/08/17 07:50:42;;;;;;;7.60;3.03;;;18.30;98.10;;;;;;4992921;28;20461;-49
2021/08/17 07:53:10;;;;;;;5.93;3.17;;;18.30;98.40;;;;;;4994655;28;20450;-49
2021/08/17 07:55:37;;;;;;;10.67;3.67;;;18.30;98.50;;;;;;4994494;28;20813;-49
2021/08/17 07:58:04;;;;;;;10.73;3.53;;;18.00;98.90;;;;;;5003384;28;20848;-50
2021/08/17 08:00:31;;;;;;;9.70;2.97;;;18.30;98.80;;;;;;5013965;28;20782;-49
2021/08/17 08:02:59;;;;;;;9.80;2.70;;;18.20;98.80;;;;;;5013882;28;20439;-49
2021/08/17 08:05:25;;;;;;;8.00;2.77;;;18.30;98.90;;;;;;5013924;28;20445;-49
2021/08/17 08:07:52;;;;;;;9.70;3.00;;;18.30;98.90;;;;;;5013478;28;20955;-51
2021/08/17 08:10:18;;;;;;;6.30;3.00;;;18.50;98.90;;;;;;5014097;28;20442;-49
2021/08/17 08:12:45;;;;;;;9.27;3.13;;;18.50;98.60;;;;;;5014243;28;20422;-49
2021/08/17 08:15:12;;;;;;;7.90;2.83;;;18.50;98.70;;;;;;5013746;28;20449;-49
2021/08/17 08:17:39;;;;;;;8.27;2.67;;;18.50;98.90;;;;;;5013577;28;20521;-51
2021/08/17 08:20:09;;;;;;;8.80;3.60;;;18.50;99.10;;;;;;5013840;28;20442;-51
2021/08/17 08:22:36;;;;;;;5.93;2.63;;;18.50;99.80;;;;;;5013914;28;20492;-50
2021/08/17 08:25:03;;;;;;;8.00;3.07;;;18.50;99.90;;;;;;5013626;28;20446;-49
2021/08/17 08:27:30;;;;;;;5.37;2.97;;;18.50;99.90;;;;;;5013695;28;20993;-51
2021/08/17 08:29:57;;;;;;;8.70;3.17;;;18.50;99.90;;;;;;5013460;28;20931;-50
2021/08/17 08:32:23;;;;;;;7.97;3.10;;;18.50;99.90;;;;;;5013358;28;20407;-49
2021/08/17 08:34:50;;;;;;;7.97;2.80;;;18.60;99.90;;;;;;5013071;28;20429;-50
2021/08/17 08:37:18;;;;;;;7.47;3.37;;;18.60;99.70;;;;;;5012585;28;20459;-50
2021/08/17 08:39:45;;;;;;;8.37;3.17;;;18.70;99.60;;;;;;5013291;28;20429;-49
2021/08/17 08:42:12;;;;;;;6.30;3.27;;;18.80;99.30;;;;;;5012709;28;20580;-50
2021/08/17 08:44:39;;;;;;;5.10;2.53;;;19.00;99.10;;;;;;5013099;28;20514;-51
2021/08/17 08:47:06;;;;;;;7.13;3.20;;;19.20;98.80;;;;;;5012729;28;20443;-50
2021/08/17 08:49:33;;;;;;;9.40;4.27;;;19.30;98.20;;;;;;5012916;28;20513;-50
2021/08/17 08:52:01;;;;;;;7.10;3.27;;;19.30;98.00;;;;;;5013501;28;20447;-50
2021/08/17 08:54:31;;;;;;;8.53;3.47;;;19.30;97.70;;;;;;5013419;28;20448;-48
2021/08/17 08:56:58;;;;;;;6.60;3.73;;;19.20;97.50;;;;;;5012416;28;20440;-48
2021/08/17 08:59:25;;;;;;;7.40;2.70;;;19.20;97.50;;;;;;5013043;28;20534;-49
2021/08/17 09:02:04;;;;;;;8.27;2.60;;;19.10;97.40;;;;;;5012702;28;20478;-50
2021/08/17 09:04:31;;;;;;;6.60;2.63;;;19.10;97.30;;;;;;5013472;28;20457;-48
2021/08/17 09:06:57;;;;;;;12.33;2.90;;;18.90;97.20;;;;;;5012758;28;20439;-49
2021/08/17 09:09:24;;;;;;;7.53;2.50;;;18.90;97.40;;;;;;5012899;28;20443;-49
2021/08/17 09:11:54;;;;;;;8.67;3.57;;;18.80;97.50;;;;;;5012642;28;20446;-50
2021/08/17 09:14:25;;;;;;;7.53;3.10;;;18.80;97.40;;;;;;5012567;28;20443;-50
2021/08/17 09:16:53;;;;;;;7.60;2.67;;;18.90;97.40;;;;;;5012021;28;20458;-52
2021/08/17 09:19:34;;;;;;;10.60;4.23;;;19.00;97.30;;;;;;5012563;28;20867;-51
2021/08/17 09:22:04;;;;;;;8.20;4.07;;;19.10;97.20;;;;;;5012096;28;20575;-50
2021/08/17 09:24:33;;;;;;;8.30;4.40;;;19.20;97.00;;;;;;5012449;28;20434;-49
2021/08/17 09:27:03;;;;;;;7.70;3.17;;;19.30;97.00;;;;;;5012367;28;20780;-51
2021/08/17 09:29:33;;;;;;;9.90;3.77;;;19.40;96.80;;;;;;5012175;28;20454;-49
2021/08/17 09:32:02;;;;;;;6.83;2.67;;;19.40;96.80;;;;;;5010889;28;20455;-50
2021/08/17 09:34:31;;;;;;;5.80;3.03;;;19.40;96.90;;;;;;5012002;28;20896;-50
2021/08/17 09:37:03;;;;;;;6.03;2.57;;;19.50;96.80;;;;;;5011625;28;20443;-50
2021/08/17 09:39:33;;;;;;;15.27;3.63;;;19.40;96.70;;;;;;5010605;28;20979;-50
2021/08/17 09:42:25;;;;;;;9.23;3.87;;;19.50;96.50;;;;;;5012114;28;20554;-50
2021/08/17 09:45:13;;;;;;;9.00;3.37;;;19.60;96.30;;;;;;5012318;28;20435;-49
2021/08/17 09:47:42;;;;;;;9.90;3.20;;;19.50;96.00;;;;;;5011870;28;20607;-49
2021/08/17 09:50:21;;;;;;;10.47;3.87;;;19.50;96.10;;;;;;5012046;28;20440;-50
2021/08/17 09:52:49;;;;;;;18.57;4.13;;;19.40;95.60;;;;;;5011418;28;20431;-49
2021/08/17 09:55:18;;;;;;;8.90;3.93;;;19.30;95.80;;;;;;5011660;28;20484;-50
2021/08/17 09:57:46;;;;;;;18.63;3.80;;;19.30;95.70;;;;;;5011467;28;20803;-49
2021/08/17 10:00:17;;;;;;;13.23;3.30;;;19.40;95.70;;;;;;5011256;28;20435;-48
2021/08/17 10:02:45;;;;;;;11.23;4.20;;;19.40;95.70;;;;;;5011843;28;20835;-50
2021/08/17 10:05:14;;;;;;;8.00;3.43;;;19.40;95.60;;;;;;5011878;28;20446;-50
2021/08/17 10:07:42;;;;;;;8.40;4.00;;;19.40;95.70;;;;;;5011067;28;20470;-51
2021/08/17 10:10:12;;;;;;;7.47;3.23;;;19.40;95.70;;;;;;5011647;28;20448;-50
2021/08/17 10:12:38;;;;;;;9.87;3.73;;;19.40;95.60;;;;;;5011552;28;20439;-50
2021/08/17 10:15:09;;;;;;;9.57;3.37;;;19.40;95.60;;;;;;5011774;28;20913;-50
2021/08/17 10:17:36;;;;;;;9.23;3.40;;;19.40;95.60;;;;;;5011217;28;20502;-50
2021/08/17 10:20:04;;;;;;;9.27;3.53;;;19.50;95.50;;;;;;5011194;28;20444;-50
2021/08/17 10:22:31;;;;;;;13.40;4.37;;;19.50;95.30;;;;;;5010930;28;20501;-50
2021/08/17 10:25:05;;;;;;;10.97;3.40;;;19.60;95.10;;;;;;5011505;28;20447;-50
2021/08/17 10:27:34;;;;;;;10.23;3.53;;;19.80;95.00;;;;;;5011237;28;20482;-50
2021/08/17 10:30:21;;;;;;;13.40;3.40;;;19.90;94.80;;;;;;5011435;28;20467;-49
2021/08/17 10:32:55;;;;;;;7.43;3.67;;;20.00;94.30;;;;;;5011031;28;20440;-51
2021/08/17 10:35:33;;;;;;;5.83;3.80;;;20.20;94.20;;;;;;5011415;28;20491;-51
2021/08/17 10:38:33;;;;;;;11.67;6.90;;;20.30;93.60;;;;;;5010501;28;20544;-48
2021/08/17 10:41:04;;;;;;;9.10;3.63;;;20.40;93.50;;;;;;4993970;28;20459;-49
2021/08/17 10:44:13;;;;;;;12.97;3.27;;;20.40;93.40;;;;;;5010997;28;20574;-51
2021/08/17 10:46:56;;;;;;;10.60;3.63;;;20.50;93.10;;;;;;5010784;28;20449;-50
2021/08/17 10:49:32;;;;;;;9.73;3.40;;;20.50;92.70;;;;;;5010813;28;20459;-49
2021/08/17 10:52:00;;;;;;;9.00;3.43;;;20.50;92.40;;;;;;5010980;28;20932;-51
2021/08/17 10:54:27;;;;;;;6.47;3.30;;;20.40;92.40;;;;;;5010722;28;21028;-50
2021/08/17 10:56:54;;;;;;;7.50;3.23;;;20.40;92.30;;;;;;5010244;28;20950;-49
2021/08/17 10:59:40;;;;;;;6.90;2.67;;;20.40;92.40;;;;;;5010528;28;20440;-50
2021/08/17 11:02:10;;;;;;;7.93;2.57;;;20.30;92.60;;;;;;5010866;28;20472;-51
2021/08/17 11:04:39;;;;;;;7.43;2.53;;;20.20;92.80;;;;;;5010838;28;20436;-50
2021/08/17 11:07:24;;;;;;;10.57;2.97;;;20.20;92.70;;;;;;5010041;28;20922;-49
2021/08/17 11:09:51;;;;;;;8.53;3.00;;;20.40;92.50;;;;;;5010839;28;20444;-49
2021/08/17 11:12:18;;;;;;;12.63;3.30;;;20.40;92.10;;;;;;5009752;28;20425;-50
2021/08/17 11:14:47;;;;;;;8.40;2.90;;;20.50;91.90;;;;;;5010542;28;20442;-49
2021/08/17 11:17:17;;;;;;;9.30;3.70;;;20.40;91.60;;;;;;5010080;28;20560;-49
2021/08/17 11:19:46;;;;;;;6.90;2.10;;;20.30;91.40;;;;;;5008631;28;20777;-49
2021/08/17 11:22:15;;;;;;;5.63;2.37;;;20.10;91.90;;;;;;5010725;28;20549;-49
2021/08/17 11:24:43;;;;;;;8.10;2.93;;;19.80;93.00;;;;;;5010636;28;20442;-49
2021/08/17 11:27:11;;;;;;;8.13;2.70;;;19.70;94.00;;;;;;5009502;28;20937;-50
2021/08/17 11:29:41;;;;;;;6.13;2.73;;;19.50;94.50;;;;;;5010346;28;20932;-49
2021/08/17 11:32:11;;;;;;;5.40;2.63;;;19.40;94.60;;;;;;5010261;28;20527;-50
2021/08/17 11:34:41;;;;;;;7.60;3.60;;;19.40;94.90;;;;;;5008897;28;20563;-49
2021/08/17 11:37:10;;;;;;;5.63;3.20;;;19.40;95.00;;;;;;5009841;28;20455;-50
2021/08/17 11:39:42;;;;;;;5.13;2.90;;;19.40;95.10;;;;;;5010169;28;20444;-50
2021/08/17 11:42:11;;;;;;;9.40;3.40;;;19.40;95.00;;;;;;5010130;28;20483;-50
2021/08/17 11:44:38;;;;;;;8.77;3.27;;;19.50;95.20;;;;;;5010621;28;20446;-49
2021/08/17 11:47:10;;;;;;;10.43;3.67;;;19.50;95.30;;;;;;5010620;28;20444;-49
2021/08/17 11:49:39;;;;;;;8.47;3.13;;;19.50;95.30;;;;;;5011059;28;20449;-48
2021/08/17 11:52:09;;;;;;;7.63;3.10;;;19.50;95.20;;;;;;5011377;28;20944;-49
2021/08/17 11:54:43;;;;;;;9.10;3.30;;;19.50;95.20;;;;;;5010999;28;20454;-51
2021/08/17 11:57:10;;;;;;;10.13;3.73;;;19.70;95.20;;;;;;5010381;28;20813;-49
2021/08/17 11:59:44;;;;;;;11.07;3.87;;;19.80;95.10;;;;;;5010795;28;20436;-49
2021/08/17 12:02:11;;;;;;;7.83;3.40;;;19.90;94.90;;;;;;5010582;28;20476;-50
2021/08/17 12:04:39;;;;;;;6.37;3.50;;;20.00;94.80;;;;;;5011043;28;20452;-49
2021/08/17 12:07:12;;;;;;;9.87;3.57;;;20.10;94.30;;;;;;5010255;28;20967;-48
2021/08/17 12:09:40;;;;;;;8.70;3.40;;;20.10;94.00;;;;;;5010707;28;20550;-49
2021/08/17 12:12:09;;;;;;;7.43;3.80;;;20.20;93.90;;;;;;5011019;28;20832;-50
2021/08/17 12:14:36;;;;;;;10.43;3.27;;;20.30;93.80;;;;;;5009040;28;20456;-50
2021/08/17 12:17:04;;;;;;;11.63;4.10;;;20.50;93.70;;;;;;5009687;28;20439;-49
2021/08/17 12:19:32;;;;;;;10.57;3.00;;;20.60;93.50;;;;;;5009002;28;20441;-49
2021/08/17 12:22:00;;;;;;;6.63;2.83;;;20.80;93.20;;;;;;5010624;28;20499;-49
2021/08/17 12:24:30;;;;;;;9.17;3.97;;;20.80;92.90;;;;;;5013709;28;20435;-50
2021/08/17 12:26:58;;;;;;;8.90;3.90;;;20.80;92.90;;;;;;5013056;28;20479;-51
2021/08/17 12:29:25;;;;;;;8.43;3.50;;;20.90;93.00;;;;;;5014075;28;20952;-50
2021/08/17 12:31:53;;;;;;;6.83;4.27;;;20.90;93.30;;;;;;5013846;28;20440;-50
2021/08/17 12:34:21;;;;;;;8.63;3.03;;;20.90;93.70;;;;;;5013798;28;20441;-49
2021/08/17 12:36:50;;;;;;;9.67;3.80;;;20.90;93.80;;;;;;5013473;28;20441;-50
2021/08/17 12:39:23;;;;;;;9.50;3.80;;;20.90;93.70;;;;;;5013734;28;20573;-49
2021/08/17 12:41:52;;;;;;;7.03;3.60;;;21.00;93.70;;;;;;5013915;28;20455;-49
2021/08/17 12:44:21;;;;;;;7.50;3.40;;;21.00;93.70;;;;;;5013435;28;20936;-48
2021/08/17 12:47:10;;;;;;;6.10;3.27;;;21.10;93.50;;;;;;5013089;28;20441;-49
2021/08/17 12:49:39;;;;;;;8.33;3.20;;;21.20;93.40;;;;;;5013916;28;20437;-49
2021/08/17 12:52:23;;;;;;;7.83;3.83;;;21.30;93.20;;;;;;5013351;28;20466;-50
2021/08/17 12:54:52;;;;;;;12.63;3.37;;;21.30;93.20;;;;;;5013536;28;20441;-49